createdAt,value
2023-05-08T00:00:08.756Z,37.28
2023-05-08T00:00:38.819Z,37.27
2023-05-08T00:01:08.889Z,37.35
2023-05-08T00:01:38.968Z,37.33
2023-05-08T00:02:09.036Z,37.36
2023-05-08T00:02:39.161Z,37.32
2023-05-08T00:03:09.232Z,37.30
2023-05-08T00:03:39.496Z,37.30
2023-05-08T00:04:09.471Z,37.26
2023-05-08T00:04:39.474Z,37.31
2023-05-08T00:05:09.397Z,37.35
2023-05-08T00:05:39.476Z,37.39
2023-05-08T00:06:09.555Z,37.35
2023-05-08T00:06:39.629Z,37.30
2023-05-08T00:07:09.738Z,37.38
2023-05-08T00:07:39.785Z,37.33
2023-05-08T00:08:09.890Z,37.34
2023-05-08T00:08:39.999Z,37.32
2023-05-08T00:09:10.128Z,37.36
2023-05-08T00:09:40.122Z,37.32
2023-05-08T00:10:10.483Z,37.32
2023-05-08T00:10:40.298Z,37.30
2023-05-08T00:11:10.416Z,37.33
2023-05-08T00:11:40.528Z,37.33
2023-05-08T00:12:10.640Z,37.30
2023-05-08T00:12:40.781Z,37.32
2023-05-08T00:13:10.832Z,37.29
2023-05-08T00:13:40.853Z,37.26
2023-05-08T00:14:10.972Z,37.30
2023-05-08T00:14:40.969Z,37.26
2023-05-08T00:15:11.080Z,37.29
2023-05-08T00:15:41.183Z,37.29
2023-05-08T00:16:11.310Z,37.30
2023-05-08T00:16:41.435Z,37.33
2023-05-08T00:17:11.424Z,37.27
2023-05-08T00:17:41.596Z,37.29
2023-05-08T00:18:11.555Z,37.29
2023-05-08T00:18:41.683Z,37.35
2023-05-08T00:19:11.672Z,37.33
2023-05-08T00:20:12.090Z,37.33
2023-05-08T00:20:41.860Z,37.32
2023-05-08T00:21:11.978Z,37.28
2023-05-08T00:21:42.088Z,37.30
2023-05-08T00:22:12.229Z,37.28
2023-05-08T00:22:42.199Z,37.30
2023-05-08T00:23:12.324Z,37.27
2023-05-08T00:23:42.316Z,37.29
2023-05-08T00:24:12.432Z,37.30
2023-05-08T00:24:42.544Z,37.27
2023-05-08T00:25:12.655Z,37.33
2023-05-08T00:25:42.764Z,37.28
2023-05-08T00:26:12.879Z,37.27
2023-05-08T00:26:42.993Z,37.30
2023-05-08T00:27:13.099Z,37.29
2023-05-08T00:27:43.205Z,37.32
2023-05-08T00:28:13.323Z,37.30
2023-05-08T00:28:43.432Z,37.34
2023-05-08T00:29:13.562Z,37.29
2023-05-08T00:29:43.666Z,37.29
2023-05-08T00:30:13.944Z,37.26
2023-05-08T00:30:43.820Z,37.29
2023-05-08T00:31:13.945Z,37.27
2023-05-08T00:31:44.169Z,37.26
2023-05-08T00:32:14.191Z,37.26
2023-05-08T00:32:44.251Z,37.29
2023-05-08T00:33:14.409Z,37.36
2023-05-08T00:33:44.275Z,37.30
2023-05-08T00:34:14.453Z,37.27
2023-05-08T00:34:44.443Z,37.33
2023-05-08T00:35:14.544Z,37.30
2023-05-08T00:35:44.667Z,37.34
2023-05-08T00:36:14.776Z,37.33
2023-05-08T00:36:44.885Z,37.36
2023-05-08T00:37:14.888Z,37.30
2023-05-08T00:37:45.023Z,37.29
2023-05-08T00:38:15.122Z,37.33
2023-05-08T00:38:45.220Z,37.32
2023-05-08T00:39:15.333Z,37.29
2023-05-08T00:39:45.444Z,37.29
2023-05-08T00:40:15.831Z,37.36
2023-05-08T00:40:45.631Z,37.34
2023-05-08T00:41:15.750Z,37.32
2023-05-08T00:41:45.869Z,37.30
2023-05-08T00:42:15.977Z,37.30
2023-05-08T00:42:46.085Z,37.24
2023-05-08T00:43:16.206Z,37.30
2023-05-08T00:43:46.310Z,37.27
2023-05-08T00:44:16.419Z,37.36
2023-05-08T00:44:46.538Z,37.27
2023-05-08T00:45:16.639Z,37.26
2023-05-08T00:45:46.790Z,37.31
2023-05-08T00:46:16.836Z,37.34
2023-05-08T00:46:46.939Z,37.39
2023-05-08T00:47:16.824Z,37.40
2023-05-08T00:47:46.969Z,37.34
2023-05-08T00:48:16.939Z,37.36
2023-05-08T00:48:47.059Z,37.40
2023-05-08T00:49:17.161Z,37.46
2023-05-08T00:49:47.287Z,37.41
2023-05-08T00:50:17.393Z,37.42
2023-05-08T00:50:47.505Z,37.41
2023-05-08T00:51:17.634Z,37.39
2023-05-08T00:51:47.622Z,37.40
2023-05-08T00:52:47.715Z,37.33
2023-05-08T00:53:17.669Z,37.36
2023-05-08T00:54:17.753Z,37.32
2023-05-08T00:54:47.863Z,37.33
2023-05-08T00:55:17.974Z,37.38
2023-05-08T00:55:48.120Z,37.27
2023-05-08T00:56:18.103Z,37.31
2023-05-08T00:56:48.205Z,37.38
2023-05-08T00:57:18.312Z,37.32
2023-05-08T00:57:48.430Z,37.32
2023-05-08T00:58:18.491Z,37.39
2023-05-08T00:58:48.572Z,37.27
2023-05-08T00:59:18.645Z,37.40
2023-05-08T00:59:48.718Z,37.46
2023-05-08T01:00:18.788Z,37.39
2023-05-08T01:00:48.889Z,37.39
2023-05-08T01:01:18.984Z,37.40
2023-05-08T01:01:49.124Z,37.41
2023-05-08T01:02:19.235Z,37.38
2023-05-08T01:02:49.289Z,37.36
2023-05-08T01:03:19.377Z,37.41
2023-05-08T01:03:49.644Z,37.42
2023-05-08T01:04:19.503Z,37.43
2023-05-08T01:04:49.580Z,37.38
2023-05-08T01:05:19.687Z,37.36
2023-05-08T01:05:49.764Z,37.38
2023-05-08T01:06:19.842Z,37.37
2023-05-08T01:06:49.901Z,37.34
2023-05-08T01:07:19.975Z,37.33
2023-05-08T01:07:50.069Z,37.38
2023-05-08T01:08:20.164Z,37.37
2023-05-08T01:08:50.270Z,37.41
2023-05-08T01:09:20.288Z,37.33
2023-05-08T01:09:50.429Z,37.36
2023-05-08T01:10:20.400Z,37.43
2023-05-08T01:10:50.524Z,37.40
2023-05-08T01:11:20.624Z,37.42
2023-05-08T01:11:50.742Z,37.38
2023-05-08T01:12:20.850Z,37.42
2023-05-08T01:12:51.019Z,37.38
2023-05-08T01:13:21.086Z,37.40
2023-05-08T01:13:51.057Z,37.33
2023-05-08T01:14:21.162Z,37.38
2023-05-08T01:14:51.273Z,37.36
2023-05-08T01:15:21.380Z,37.39
2023-05-08T01:15:51.533Z,37.40
2023-05-08T01:16:21.521Z,37.30
2023-05-08T01:16:51.512Z,37.36
2023-05-08T01:17:21.544Z,37.37
2023-05-08T01:17:51.581Z,37.34
2023-05-08T01:18:21.562Z,37.39
2023-05-08T01:18:51.677Z,37.30
2023-05-08T01:19:21.784Z,37.33
2023-05-08T01:19:51.914Z,37.43
2023-05-08T01:20:21.901Z,37.40
2023-05-08T01:20:52.039Z,37.36
2023-05-08T01:21:22.004Z,37.38
2023-05-08T01:21:52.111Z,37.39
2023-05-08T01:22:22.218Z,37.33
2023-05-08T01:22:52.368Z,37.36
2023-05-08T01:23:22.446Z,37.31
2023-05-08T01:23:52.567Z,37.30
2023-05-08T01:24:22.556Z,37.33
2023-05-08T01:24:52.666Z,37.31
2023-05-08T01:25:22.773Z,37.31
2023-05-08T01:25:52.886Z,37.28
2023-05-08T01:26:23.002Z,37.31
2023-05-08T01:26:53.107Z,37.33
2023-05-08T01:27:23.218Z,37.34
2023-05-08T01:27:53.344Z,37.36
2023-05-08T01:28:23.450Z,37.28
2023-05-08T01:28:53.554Z,37.30
2023-05-08T01:29:23.551Z,37.21
2023-05-08T01:29:53.660Z,37.30
2023-05-08T01:30:23.766Z,37.30
2023-05-08T01:30:53.872Z,37.31
2023-05-08T01:31:24.012Z,37.24
2023-05-08T01:31:54.101Z,37.33
2023-05-08T01:32:24.248Z,37.27
2023-05-08T01:32:54.289Z,37.30
2023-05-08T01:33:24.355Z,37.31
2023-05-08T01:33:54.390Z,37.30
2023-05-08T01:34:24.504Z,37.28
2023-05-08T01:34:54.609Z,37.31
2023-05-08T01:35:24.715Z,37.27
2023-05-08T01:35:54.860Z,37.27
2023-05-08T01:36:24.828Z,37.31
2023-05-08T01:36:54.936Z,37.33
2023-05-08T01:37:25.044Z,37.33
2023-05-08T01:37:55.194Z,37.31
2023-05-08T01:38:25.158Z,37.36
2023-05-08T01:38:55.268Z,37.31
2023-05-08T01:39:25.384Z,37.28
2023-05-08T01:39:55.490Z,37.30
2023-05-08T01:40:25.607Z,37.28
2023-05-08T01:40:55.602Z,37.24
2023-05-08T01:41:25.711Z,37.28
2023-05-08T01:41:55.828Z,37.31
2023-05-08T01:42:25.972Z,37.30
2023-05-08T01:42:55.967Z,37.31
2023-05-08T01:43:26.088Z,37.34
2023-05-08T01:43:56.191Z,37.33
2023-05-08T01:44:26.305Z,37.34
2023-05-08T01:44:56.410Z,37.28
2023-05-08T01:45:26.524Z,37.28
2023-05-08T01:45:56.639Z,37.30
2023-05-08T01:46:26.826Z,37.28
2023-05-08T01:46:56.888Z,37.21
2023-05-08T01:47:26.921Z,37.25
2023-05-08T01:47:56.951Z,37.25
2023-05-08T01:48:26.921Z,37.28
2023-05-08T01:48:57.030Z,37.31
2023-05-08T01:49:27.145Z,37.25
2023-05-08T01:49:57.265Z,37.28
2023-05-08T01:50:27.365Z,37.28
2023-05-08T01:50:57.361Z,37.31
2023-05-08T01:51:27.472Z,37.25
2023-05-08T01:51:57.609Z,37.35
2023-05-08T01:52:27.592Z,37.34
2023-05-08T01:52:57.729Z,37.30
2023-05-08T01:53:27.820Z,37.33
2023-05-08T01:53:57.931Z,37.31
2023-05-08T01:54:28.034Z,37.27
2023-05-08T01:54:58.180Z,37.28
2023-05-08T01:55:28.149Z,37.27
2023-05-08T01:55:58.272Z,37.31
2023-05-08T01:56:28.385Z,37.34
2023-05-08T01:56:58.372Z,37.33
2023-05-08T01:57:28.486Z,37.30
2023-05-08T01:57:58.599Z,37.34
2023-05-08T01:58:28.664Z,37.28
2023-05-08T01:58:58.742Z,37.24
2023-05-08T01:59:28.823Z,37.31
2023-05-08T01:59:58.896Z,37.28
2023-05-08T02:00:28.996Z,37.28
2023-05-08T02:00:59.095Z,37.25
2023-05-08T02:01:29.140Z,37.33
2023-05-08T02:01:59.241Z,37.30
2023-05-08T02:02:29.353Z,37.28
2023-05-08T02:02:59.357Z,37.30
2023-05-08T02:03:29.405Z,37.28
2023-05-08T02:03:59.395Z,37.30
2023-05-08T02:04:29.493Z,37.31
2023-05-08T02:04:59.553Z,37.30
2023-05-08T02:05:29.630Z,37.31
2023-05-08T02:05:59.716Z,37.34
2023-05-08T02:06:29.790Z,37.31
2023-05-08T02:06:59.882Z,37.33
2023-05-08T02:07:29.961Z,37.33
2023-05-08T02:08:00.063Z,37.30
2023-05-08T02:08:30.090Z,37.33
2023-05-08T02:09:00.172Z,37.31
2023-05-08T02:09:30.289Z,37.37
2023-05-08T02:10:00.299Z,37.32
2023-05-08T02:10:30.424Z,37.30
2023-05-08T02:11:00.413Z,37.27
2023-05-08T02:12:00.473Z,37.28
2023-05-08T02:12:30.584Z,37.26
2023-05-08T02:13:00.744Z,37.31
2023-05-08T02:13:30.727Z,37.27
2023-05-08T02:14:00.828Z,37.27
2023-05-08T02:14:30.929Z,37.34
2023-05-08T02:15:01.062Z,37.27
2023-05-08T02:15:31.043Z,37.24
2023-05-08T02:16:01.172Z,37.26
2023-05-08T02:16:31.360Z,37.25
2023-05-08T02:17:01.413Z,37.25
2023-05-08T02:17:31.356Z,37.31
2023-05-08T02:18:01.490Z,37.31
2023-05-08T02:18:31.485Z,37.30
2023-05-08T02:19:01.600Z,37.31
2023-05-08T02:19:31.730Z,37.29
2023-05-08T02:20:01.854Z,37.32
2023-05-08T02:20:31.845Z,37.29
2023-05-08T02:21:01.951Z,37.29
2023-05-08T02:21:32.101Z,37.22
2023-05-08T02:22:02.154Z,37.30
2023-05-08T02:22:32.268Z,37.25
2023-05-08T02:23:02.383Z,37.32
2023-05-08T02:23:32.523Z,37.28
2023-05-08T02:24:02.607Z,37.31
2023-05-08T02:24:33.052Z,37.34
2023-05-08T02:25:02.785Z,37.31
2023-05-08T02:26:02.848Z,37.32
2023-05-08T02:26:32.983Z,37.29
2023-05-08T02:27:02.982Z,37.31
2023-05-08T02:27:33.103Z,37.31
2023-05-08T02:28:03.211Z,37.31
2023-05-08T02:28:33.324Z,37.28
2023-05-08T02:29:03.433Z,37.31
2023-05-08T02:29:33.652Z,37.31
2023-05-08T02:30:03.641Z,37.31
2023-05-08T02:30:33.744Z,37.26
2023-05-08T02:31:03.867Z,37.29
2023-05-08T02:31:33.987Z,37.32
2023-05-08T02:32:04.119Z,37.30
2023-05-08T02:32:34.163Z,37.35
2023-05-08T02:33:04.168Z,37.37
2023-05-08T02:33:34.137Z,37.35
2023-05-08T02:34:04.257Z,37.32
2023-05-08T02:34:34.365Z,37.34
2023-05-08T02:35:04.493Z,37.34
2023-05-08T02:35:34.489Z,37.35
2023-05-08T02:36:04.602Z,37.31
2023-05-08T02:36:34.708Z,37.29
2023-05-08T02:37:04.823Z,37.29
2023-05-08T02:37:34.923Z,37.32
2023-05-08T02:38:05.032Z,37.30
2023-05-08T02:38:35.042Z,37.31
2023-05-08T02:39:05.072Z,37.30
2023-05-08T02:40:05.113Z,37.34
2023-05-08T02:40:35.217Z,37.25
2023-05-08T02:41:05.328Z,37.29
2023-05-08T02:41:35.446Z,37.26
2023-05-08T02:42:05.557Z,37.25
2023-05-08T02:42:35.674Z,37.28
2023-05-08T02:43:05.791Z,37.31
2023-05-08T02:43:35.910Z,37.26
2023-05-08T02:44:05.910Z,37.28
2023-05-08T02:44:36.014Z,37.28
2023-05-08T02:45:06.120Z,37.35
2023-05-08T02:45:36.232Z,37.31
2023-05-08T02:46:06.407Z,37.31
2023-05-08T02:46:36.475Z,37.31
2023-05-08T02:47:07.286Z,37.31
2023-05-08T02:47:36.474Z,37.28
2023-05-08T02:48:06.780Z,37.29
2023-05-08T02:48:36.614Z,37.28
2023-05-08T02:49:06.715Z,37.32
2023-05-08T02:49:36.840Z,37.26
2023-05-08T02:50:06.946Z,37.28
2023-05-08T02:50:37.054Z,37.32
2023-05-08T02:51:07.160Z,37.32
2023-05-08T02:51:37.272Z,37.31
2023-05-08T02:52:07.385Z,37.28
2023-05-08T02:52:37.502Z,37.29
2023-05-08T02:53:07.502Z,37.34
2023-05-08T02:53:37.497Z,37.32
2023-05-08T02:54:07.634Z,37.34
2023-05-08T02:54:37.711Z,37.29
2023-05-08T02:55:07.824Z,37.31
2023-05-08T02:55:37.932Z,37.31
2023-05-08T02:56:08.057Z,37.29
2023-05-08T02:56:38.151Z,37.26
2023-05-08T02:57:08.272Z,37.28
2023-05-08T02:57:38.382Z,37.32
2023-05-08T02:58:08.470Z,37.29
2023-05-08T02:58:38.578Z,37.31
2023-05-08T02:59:08.625Z,37.34
2023-05-08T02:59:38.698Z,37.22
2023-05-08T03:00:08.776Z,37.34
2023-05-08T03:00:38.843Z,37.35
2023-05-08T03:01:08.946Z,37.32
2023-05-08T03:01:39.023Z,37.29
2023-05-08T03:02:09.104Z,37.26
2023-05-08T03:02:39.278Z,37.30
2023-05-08T03:03:09.347Z,37.34
2023-05-08T03:03:39.509Z,37.26
2023-05-08T03:04:09.407Z,37.28
2023-05-08T03:04:39.473Z,37.29
2023-05-08T03:05:09.553Z,37.30
2023-05-08T03:05:39.621Z,37.25
2023-05-08T03:06:09.694Z,37.26
2023-05-08T03:06:39.768Z,37.26
2023-05-08T03:07:09.846Z,37.30
2023-05-08T03:07:39.922Z,37.34
2023-05-08T03:08:10.038Z,37.29
2023-05-08T03:08:40.148Z,37.28
2023-05-08T03:09:10.262Z,37.32
2023-05-08T03:09:40.406Z,37.34
2023-05-08T03:10:10.729Z,37.34
2023-05-08T03:10:40.510Z,37.32
2023-05-08T03:11:10.626Z,37.34
2023-05-08T03:11:40.741Z,37.36
2023-05-08T03:12:10.745Z,37.33
2023-05-08T03:12:42.677Z,37.36
2023-05-08T03:13:10.842Z,37.38
2023-05-08T03:13:40.822Z,37.39
2023-05-08T03:14:10.814Z,37.38
2023-05-08T03:14:40.916Z,37.39
2023-05-08T03:15:11.024Z,37.33
2023-05-08T03:15:41.156Z,37.35
2023-05-08T03:16:11.207Z,37.38
2023-05-08T03:16:41.178Z,37.41
2023-05-08T03:17:11.294Z,37.35
2023-05-08T03:17:41.431Z,37.42
2023-05-08T03:18:11.400Z,37.36
2023-05-08T03:18:41.507Z,37.41
2023-05-08T03:19:11.617Z,37.42
2023-05-08T03:19:41.728Z,37.39
2023-05-08T03:20:11.996Z,37.39
2023-05-08T03:20:41.759Z,37.36
2023-05-08T03:21:11.874Z,37.36
2023-05-08T03:21:41.866Z,37.41
2023-05-08T03:22:11.974Z,37.39
2023-05-08T03:22:42.109Z,37.38
2023-05-08T03:23:12.201Z,37.32
2023-05-08T03:23:42.309Z,37.31
2023-05-08T03:24:12.424Z,37.39
2023-05-08T03:24:42.559Z,37.38
2023-05-08T03:25:12.673Z,37.35
2023-05-08T03:25:42.670Z,37.38
2023-05-08T03:26:12.776Z,37.35
2023-05-08T03:26:42.891Z,37.39
2023-05-08T03:27:13.000Z,37.36
2023-05-08T03:27:43.121Z,37.41
2023-05-08T03:28:13.224Z,37.41
2023-05-08T03:28:43.343Z,37.41
2023-05-08T03:29:13.457Z,37.39
2023-05-08T03:29:43.568Z,37.37
2023-05-08T03:30:13.936Z,37.39
2023-05-08T03:30:43.683Z,37.38
2023-05-08T03:31:13.836Z,37.36
2023-05-08T03:31:43.939Z,37.36
2023-05-08T03:32:13.893Z,37.38
2023-05-08T03:32:44.056Z,37.32
2023-05-08T03:33:14.050Z,37.38
2023-05-08T03:33:44.164Z,37.35
2023-05-08T03:34:14.273Z,37.32
2023-05-08T03:34:44.384Z,37.32
2023-05-08T03:35:14.378Z,37.34
2023-05-08T03:35:44.486Z,37.35
2023-05-08T03:36:14.620Z,37.36
2023-05-08T03:36:44.601Z,37.35
2023-05-08T03:37:14.701Z,37.41
2023-05-08T03:37:44.818Z,37.39
2023-05-08T03:38:14.930Z,37.38
2023-05-08T03:38:45.043Z,37.35
2023-05-08T03:39:15.162Z,37.35
2023-05-08T03:39:45.297Z,37.32
2023-05-08T03:40:15.418Z,37.25
2023-05-08T03:40:45.515Z,37.86
2023-05-08T03:41:15.614Z,37.81
2023-05-08T03:41:45.734Z,37.78
2023-05-08T03:42:15.838Z,37.69
2023-05-08T03:42:45.952Z,37.72
2023-05-08T03:43:16.099Z,37.66
2023-05-08T03:43:46.112Z,37.64
2023-05-08T03:44:16.229Z,37.64
2023-05-08T03:44:46.387Z,37.56
2023-05-08T03:45:16.372Z,37.59
2023-05-08T03:45:46.479Z,37.54
2023-05-08T03:46:16.637Z,37.58
2023-05-08T03:46:46.680Z,37.61
2023-05-08T03:47:16.653Z,37.63
2023-05-08T03:47:46.801Z,37.63
2023-05-08T03:48:16.860Z,37.66
2023-05-08T03:48:46.871Z,37.68
2023-05-08T03:49:16.846Z,37.93
2023-05-08T03:49:46.961Z,37.95
2023-05-08T03:50:17.078Z,37.97
2023-05-08T03:50:47.195Z,38.02
2023-05-08T03:51:17.310Z,37.97
2023-05-08T03:51:47.419Z,38.02
2023-05-08T03:52:17.559Z,37.99
2023-05-08T03:52:47.523Z,37.95
2023-05-08T03:53:17.660Z,37.90
2023-05-08T03:53:47.654Z,37.98
2023-05-08T03:54:47.724Z,37.80
2023-05-08T03:55:17.836Z,37.79
2023-05-08T03:55:47.973Z,37.76
2023-05-08T03:56:17.949Z,37.69
2023-05-08T03:56:48.064Z,37.77
2023-05-08T03:57:18.176Z,38.05
2023-05-08T03:57:48.279Z,38.09
2023-05-08T03:58:18.365Z,37.99
2023-05-08T03:58:48.441Z,38.08
2023-05-08T03:59:18.508Z,37.93
2023-05-08T03:59:48.584Z,37.90
2023-05-08T04:00:18.655Z,37.99
2023-05-08T04:00:48.731Z,38.18
2023-05-08T04:01:18.805Z,38.15
2023-05-08T04:01:49.018Z,38.15
2023-05-08T04:02:19.007Z,38.13
2023-05-08T04:02:49.015Z,38.18
2023-05-08T04:03:19.153Z,38.18
2023-05-08T04:03:49.117Z,37.99
2023-05-08T04:04:58.094Z,37.90
2023-05-08T04:05:28.178Z,38.03
2023-05-08T04:05:58.242Z,38.33
2023-05-08T04:06:30.748Z,38.28
2023-05-08T04:06:58.325Z,38.25
2023-05-08T04:07:28.461Z,38.25
2023-05-08T04:07:58.420Z,38.57
2023-05-08T04:08:28.503Z,38.46
2023-05-08T04:08:58.586Z,38.54
2023-05-08T04:09:28.650Z,38.49
2023-05-08T04:09:58.728Z,38.44
2023-05-08T04:10:28.797Z,38.61
2023-05-08T04:10:58.915Z,38.70
2023-05-08T04:11:28.959Z,38.67
2023-05-08T04:11:59.053Z,38.57
2023-05-08T04:12:29.128Z,38.45
2023-05-08T04:12:59.228Z,38.55
2023-05-08T04:13:29.313Z,38.59
2023-05-08T04:13:59.383Z,38.55
2023-05-08T04:14:29.460Z,38.30
2023-05-08T04:14:59.587Z,38.30
2023-05-08T04:15:29.576Z,38.33
2023-05-08T04:15:59.678Z,38.86
2023-05-08T04:16:29.825Z,38.95
2023-05-08T04:16:59.894Z,38.70
2023-05-08T04:17:29.986Z,38.67
2023-05-08T04:17:59.935Z,38.62
2023-05-08T04:18:29.930Z,38.55
2023-05-08T04:19:00.050Z,38.50
2023-05-08T04:19:30.166Z,38.65
2023-05-08T04:20:00.274Z,38.62
2023-05-08T04:20:30.411Z,38.53
2023-05-08T04:21:00.395Z,38.48
2023-05-08T04:21:30.513Z,38.46
2023-05-08T04:22:00.502Z,38.84
2023-05-08T04:22:30.612Z,38.85
2023-05-08T04:23:00.732Z,38.63
2023-05-08T04:23:30.853Z,38.59
2023-05-08T04:24:00.852Z,38.63
2023-05-08T04:24:30.947Z,38.68
2023-05-08T04:25:01.071Z,38.63
2023-05-08T04:25:31.070Z,38.67
2023-05-08T04:26:01.217Z,38.67
2023-05-08T04:26:31.191Z,38.53
2023-05-08T04:27:01.336Z,38.64
2023-05-08T04:27:31.334Z,38.65
2023-05-08T04:28:01.415Z,38.51
2023-05-08T04:28:31.535Z,38.48
2023-05-08T04:29:01.531Z,38.81
2023-05-08T04:29:31.645Z,38.77
2023-05-08T04:30:01.761Z,38.77
2023-05-08T04:30:31.871Z,39.08
2023-05-08T04:31:01.992Z,38.94
2023-05-08T04:31:32.002Z,39.10
2023-05-08T04:32:32.131Z,39.11
2023-05-08T04:33:02.144Z,39.38
2023-05-08T04:33:32.126Z,39.30
2023-05-08T04:34:02.236Z,39.19
2023-05-08T04:34:32.344Z,39.38
2023-05-08T04:35:02.471Z,39.47
2023-05-08T04:35:32.461Z,39.23
2023-05-08T04:36:02.576Z,39.28
2023-05-08T04:36:32.681Z,39.38
2023-05-08T04:37:02.801Z,39.32
2023-05-08T04:37:32.916Z,39.13
2023-05-08T04:38:03.029Z,39.16
2023-05-08T04:38:33.171Z,39.19
2023-05-08T04:39:03.183Z,39.22
2023-05-08T04:39:33.354Z,39.28
2023-05-08T04:40:03.360Z,39.12
2023-05-08T04:40:33.467Z,38.96
2023-05-08T04:41:03.616Z,39.02
2023-05-08T04:41:33.661Z,38.95
2023-05-08T04:42:03.641Z,38.96
2023-05-08T04:42:33.652Z,38.96
2023-05-08T04:43:03.660Z,38.67
2023-05-08T04:44:03.726Z,38.69
2023-05-08T04:44:33.832Z,38.70
2023-05-08T04:45:03.941Z,38.70
2023-05-08T04:45:34.069Z,38.72
2023-05-08T04:46:04.206Z,38.88
2023-05-08T04:46:34.303Z,38.88
2023-05-08T04:47:04.312Z,38.80
2023-05-08T04:47:34.442Z,38.72
2023-05-08T04:48:04.447Z,38.73
2023-05-08T04:48:34.537Z,38.66
2023-05-08T04:49:04.647Z,38.65
2023-05-08T04:49:34.711Z,38.57
2023-05-08T04:50:04.737Z,38.69
2023-05-08T04:50:34.845Z,38.53
2023-05-08T04:51:04.968Z,38.48
2023-05-08T04:51:35.071Z,38.53
2023-05-08T04:52:05.074Z,38.56
2023-05-08T04:53:05.158Z,38.54
2023-05-08T04:53:35.269Z,38.51
2023-05-08T04:54:05.383Z,38.57
2023-05-08T04:54:35.505Z,38.57
2023-05-08T04:55:05.634Z,38.43
2023-05-08T04:55:35.609Z,38.49
2023-05-08T04:56:05.739Z,38.58
2023-05-08T04:56:35.733Z,38.72
2023-05-08T04:57:05.844Z,38.49
2023-05-08T04:57:35.961Z,38.40
2023-05-08T04:58:06.067Z,38.48
2023-05-08T04:58:36.218Z,38.43
2023-05-08T04:59:06.303Z,38.41
2023-05-08T04:59:36.408Z,38.38
2023-05-08T05:00:06.518Z,38.47
2023-05-08T05:00:36.640Z,38.39
2023-05-08T05:01:06.767Z,38.34
2023-05-08T05:01:36.804Z,38.38
2023-05-08T05:02:06.862Z,38.31
2023-05-08T05:02:36.913Z,38.32
2023-05-08T05:03:06.972Z,38.34
2023-05-08T05:03:37.018Z,38.28
2023-05-08T05:04:07.102Z,38.31
2023-05-08T05:04:37.107Z,38.47
2023-05-08T05:05:07.212Z,38.41
2023-05-08T05:05:38.803Z,38.54
2023-05-08T05:06:07.327Z,38.57
2023-05-08T05:06:37.419Z,38.47
2023-05-08T05:07:07.517Z,38.57
2023-05-08T05:07:37.580Z,38.53
2023-05-08T05:08:07.659Z,38.48
2023-05-08T05:08:37.729Z,38.44
2023-05-08T05:09:07.796Z,38.41
2023-05-08T05:09:37.865Z,38.39
2023-05-08T05:10:07.968Z,38.34
2023-05-08T05:10:38.032Z,38.27
2023-05-08T05:11:08.131Z,38.31
2023-05-08T05:11:38.178Z,38.30
2023-05-08T05:12:08.269Z,38.31
2023-05-08T05:12:38.362Z,38.29
2023-05-08T05:13:08.509Z,38.26
2023-05-08T05:13:38.452Z,38.21
2023-05-08T05:14:08.531Z,38.28
2023-05-08T05:14:38.640Z,38.27
2023-05-08T05:15:08.622Z,38.28
2023-05-08T05:16:08.737Z,38.24
2023-05-08T05:16:38.830Z,38.22
2023-05-08T05:17:08.860Z,38.31
2023-05-08T05:17:38.948Z,38.38
2023-05-08T05:18:08.932Z,38.21
2023-05-08T05:18:38.890Z,38.29
2023-05-08T05:19:08.993Z,38.27
2023-05-08T05:19:39.103Z,38.22
2023-05-08T05:20:09.269Z,38.22
2023-05-08T05:20:39.250Z,38.31
2023-05-08T05:21:09.353Z,38.31
2023-05-08T05:21:39.478Z,38.37
2023-05-08T05:22:09.578Z,38.37
2023-05-08T05:22:39.692Z,38.32
2023-05-08T05:23:09.838Z,38.32
2023-05-08T05:23:39.974Z,38.33
2023-05-08T05:24:09.990Z,38.29
2023-05-08T05:24:40.100Z,38.40
2023-05-08T05:25:10.252Z,38.27
2023-05-08T05:25:40.258Z,38.22
2023-05-08T05:26:10.279Z,38.24
2023-05-08T05:26:40.360Z,38.33
2023-05-08T05:27:10.473Z,38.31
2023-05-08T05:27:40.579Z,38.24
2023-05-08T05:28:10.696Z,38.21
2023-05-08T05:28:40.807Z,38.17
2023-05-08T05:29:10.922Z,38.21
2023-05-08T05:29:41.056Z,38.18
2023-05-08T05:30:11.221Z,38.17
2023-05-08T05:30:41.119Z,38.28
2023-05-08T05:31:11.255Z,38.27
2023-05-08T05:31:41.291Z,38.27
2023-05-08T05:32:11.354Z,38.27
2023-05-08T05:32:41.560Z,38.28
2023-05-08T05:33:11.550Z,38.33
2023-05-08T05:33:41.665Z,38.24
2023-05-08T05:34:11.715Z,38.31
2023-05-08T05:34:41.713Z,38.27
2023-05-08T05:35:12.103Z,38.37
2023-05-08T05:35:41.893Z,38.25
2023-05-08T05:36:12.007Z,38.27
2023-05-08T05:36:42.130Z,38.22
2023-05-08T05:37:12.225Z,38.23
2023-05-08T05:37:42.338Z,38.28
2023-05-08T05:38:12.457Z,38.20
2023-05-08T05:38:42.582Z,38.28
2023-05-08T05:39:12.780Z,38.21
2023-05-08T05:39:42.612Z,38.48
2023-05-08T05:40:12.725Z,38.46
2023-05-08T05:40:42.855Z,38.44
2023-05-08T05:41:12.858Z,38.44
2023-05-08T05:41:42.955Z,38.38
2023-05-08T05:42:13.063Z,38.32
2023-05-08T05:42:43.181Z,38.35
2023-05-08T05:43:13.305Z,38.41
2023-05-08T05:43:43.329Z,38.37
2023-05-08T05:44:13.310Z,38.32
2023-05-08T05:44:43.427Z,38.34
2023-05-08T05:45:13.739Z,38.50
2023-05-08T05:45:43.628Z,38.62
2023-05-08T05:46:13.733Z,38.61
2023-05-08T05:46:44.686Z,38.61
2023-05-08T05:47:13.927Z,38.54
2023-05-08T05:47:43.980Z,38.53
2023-05-08T05:48:13.991Z,38.59
2023-05-08T05:48:44.078Z,38.53
2023-05-08T05:49:14.046Z,38.49
2023-05-08T05:49:44.167Z,38.45
2023-05-08T05:50:14.411Z,38.54
2023-05-08T05:50:44.306Z,38.43
2023-05-08T05:51:14.418Z,38.48
2023-05-08T05:51:44.532Z,38.53
2023-05-08T05:52:14.646Z,38.53
2023-05-08T05:52:44.802Z,38.44
2023-05-08T05:53:14.810Z,38.63
2023-05-08T05:53:44.789Z,38.54
2023-05-08T05:54:14.918Z,38.64
2023-05-08T05:54:44.890Z,38.59
2023-05-08T05:55:15.266Z,38.56
2023-05-08T05:55:45.048Z,38.47
2023-05-08T05:56:15.156Z,38.46
2023-05-08T05:56:45.290Z,38.41
2023-05-08T05:57:15.403Z,38.58
2023-05-08T05:57:45.389Z,38.50
2023-05-08T05:58:15.513Z,38.46
2023-05-08T05:58:45.610Z,38.47
2023-05-08T05:59:15.655Z,38.45
2023-05-08T05:59:45.639Z,38.50
2023-05-08T06:00:15.645Z,38.43
2023-05-08T06:01:15.717Z,38.51
2023-05-08T06:01:45.872Z,38.55
2023-05-08T06:02:15.892Z,38.56
2023-05-08T06:02:46.056Z,38.59
2023-05-08T06:03:16.022Z,38.60
2023-05-08T06:03:46.007Z,38.74
2023-05-08T06:04:15.992Z,38.78
2023-05-08T06:04:45.978Z,38.60
2023-05-08T06:05:16.052Z,38.62
2023-05-08T06:05:46.137Z,38.62
2023-05-08T06:06:16.205Z,38.52
2023-05-08T06:06:46.274Z,38.58
2023-05-08T06:07:16.352Z,38.55
2023-05-08T06:07:46.427Z,38.55
2023-05-08T06:08:16.519Z,38.60
2023-05-08T06:08:46.604Z,38.53
2023-05-08T06:09:16.691Z,38.55
2023-05-08T06:09:46.789Z,38.49
2023-05-08T06:10:16.852Z,38.54
2023-05-08T06:10:46.930Z,38.54
2023-05-08T06:11:17.085Z,38.64
2023-05-08T06:11:47.004Z,38.61
2023-05-08T06:12:17.099Z,38.39
2023-05-08T06:12:47.168Z,38.66
2023-05-08T06:13:17.297Z,38.54
2023-05-08T06:13:49.150Z,38.54
2023-05-08T06:14:17.318Z,38.46
2023-05-08T06:14:47.417Z,38.50
2023-05-08T06:15:17.528Z,38.54
2023-05-08T06:15:47.649Z,38.45
2023-05-08T06:16:17.783Z,38.41
2023-05-08T06:16:47.934Z,38.38
2023-05-08T06:17:17.930Z,38.32
2023-05-08T06:17:47.950Z,38.42
2023-05-08T06:18:17.981Z,38.32
2023-05-08T06:18:47.983Z,38.24
2023-05-08T06:19:17.964Z,38.20
2023-05-08T06:19:48.076Z,38.16
2023-05-08T06:20:18.195Z,38.26
2023-05-08T06:20:48.294Z,38.32
2023-05-08T06:21:18.422Z,38.25
2023-05-08T06:21:48.406Z,38.19
2023-05-08T06:22:18.515Z,38.20
2023-05-08T06:22:48.631Z,38.19
2023-05-08T06:23:18.751Z,38.16
2023-05-08T06:23:48.742Z,38.15
2023-05-08T06:24:18.852Z,38.12
2023-05-08T06:24:48.960Z,38.20
2023-05-08T06:25:19.079Z,38.22
2023-05-08T06:25:49.187Z,38.12
2023-05-08T06:26:20.128Z,38.07
2023-05-08T06:26:49.429Z,38.09
2023-05-08T06:27:19.523Z,38.10
2023-05-08T06:27:49.664Z,38.13
2023-05-08T06:28:19.758Z,38.10
2023-05-08T06:28:49.868Z,38.10
2023-05-08T06:29:19.980Z,38.11
2023-05-08T06:29:50.107Z,38.07
2023-05-08T06:30:20.211Z,38.07
2023-05-08T06:30:50.351Z,38.03
2023-05-08T06:31:20.382Z,38.13
2023-05-08T06:31:50.457Z,38.00
2023-05-08T06:32:20.600Z,38.10
2023-05-08T06:32:50.666Z,38.01
2023-05-08T06:33:20.688Z,38.01
2023-05-08T06:33:50.821Z,38.06